Time;durP1;ratioP1;P1;durP2;ratioP2;P2;SDS_P1;SDS_P2;PMS_P1;PMS_P2;Temp;Humidity;BMP_temperature;BMP_pressure;BME280_temperature;BME280_humidity;BME280_pressure;Samples;Min_cycle;Max_cycle;Signal;HPM_P1;HPM_P2
2021/11/15 00:01:43;;;;;;;14.57;7.57;;;12.90;99.90;;;;;;5073400;28;20497;-72
2021/11/15 00:04:13;;;;;;;14.02;6.97;;;12.70;99.90;;;;;;5073612;28;20387;-72
2021/11/15 00:06:39;;;;;;;16.95;8.40;;;12.60;99.90;;;;;;5073619;28;20154;-73
2021/11/15 00:09:07;;;;;;;12.77;6.75;;;12.50;99.90;;;;;;5073561;28;20029;-73
2021/11/15 00:11:33;;;;;;;16.55;7.63;;;12.40;99.90;;;;;;5074032;28;20024;-73
2021/11/15 00:13:59;;;;;;;16.08;7.05;;;12.30;99.90;;;;;;5074011;28;20437;-74
2021/11/15 00:16:25;;;;;;;15.25;7.10;;;12.30;99.90;;;;;;5073372;28;20108;-72
2021/11/15 00:18:51;;;;;;;15.13;7.72;;;12.30;99.90;;;;;;5073356;28;20062;-73
2021/11/15 00:21:16;;;;;;;14.02;7.30;;;12.20;99.90;;;;;;5073584;28;20052;-72
2021/11/15 00:23:42;;;;;;;15.77;7.55;;;12.20;99.90;;;;;;5073591;28;20021;-70
2021/11/15 00:26:08;;;;;;;15.45;7.68;;;12.20;99.90;;;;;;5073297;28;20017;-75
2021/11/15 00:28:33;;;;;;;12.13;6.90;;;12.20;99.90;;;;;;5073281;28;20024;-73
2021/11/15 00:30:59;;;;;;;14.85;7.30;;;12.30;99.90;;;;;;5073517;28;20029;-72
2021/11/15 00:33:25;;;;;;;13.02;6.35;;;12.40;99.90;;;;;;5073501;28;20108;-71
2021/11/15 00:35:51;;;;;;;12.13;6.80;;;12.40;99.90;;;;;;5073169;28;20417;-72
2021/11/15 00:38:16;;;;;;;16.02;7.03;;;12.40;99.90;;;;;;5073478;28;20028;-74
2021/11/15 00:40:42;;;;;;;13.05;6.68;;;12.20;99.90;;;;;;5073042;28;20482;-74
2021/11/15 00:43:08;;;;;;;16.30;7.90;;;12.20;99.90;;;;;;5073308;28;20025;-73
2021/11/15 00:45:34;;;;;;;12.93;6.40;;;12.20;99.90;;;;;;5073159;28;20072;-72
2021/11/15 00:48:00;;;;;;;17.00;6.45;;;12.20;99.90;;;;;;5073374;28;20421;-71
2021/11/15 00:50:26;;;;;;;13.30;6.50;;;12.30;99.90;;;;;;5073038;28;20024;-73
2021/11/15 00:52:52;;;;;;;12.45;5.68;;;12.40;99.90;;;;;;5073007;28;20028;-74
2021/11/15 00:55:19;;;;;;;12.88;6.28;;;12.40;99.90;;;;;;5072988;28;20535;-71
2021/11/15 00:57:46;;;;;;;14.48;6.18;;;12.40;99.90;;;;;;5073039;28;20103;-72
2021/11/15 01:00:16;;;;;;;12.32;5.68;;;12.30;99.90;;;;;;5072897;28;20099;-72
2021/11/15 01:02:42;;;;;;;13.50;6.25;;;12.20;99.90;;;;;;5073598;28;20016;-72
2021/11/15 01:05:08;;;;;;;12.20;5.68;;;12.30;99.90;;;;;;5072971;28;20498;-73
2021/11/15 01:07:34;;;;;;;12.80;5.68;;;12.20;99.90;;;;;;5072920;28;20474;-72
2021/11/15 01:10:00;;;;;;;14.13;5.78;;;12.30;99.90;;;;;;5073129;28;20492;-71
2021/11/15 01:12:26;;;;;;;12.38;6.28;;;12.40;99.90;;;;;;5073133;28;20103;-71
2021/11/15 01:14:51;;;;;;;10.90;5.03;;;12.40;99.90;;;;;;5076704;28;20054;-72
2021/11/15 01:17:17;;;;;;;11.02;5.32;;;12.40;99.90;;;;;;5058772;28;20111;-73
2021/11/15 01:19:43;;;;;;;9.80;5.13;;;12.40;99.90;;;;;;5076958;28;20024;-71
2021/11/15 01:22:09;;;;;;;11.10;5.40;;;12.40;99.90;;;;;;5076665;28;20024;-73
2021/11/15 01:24:35;;;;;;;11.63;5.00;;;12.30;99.90;;;;;;5076660;28;20478;-72
2021/11/15 01:27:00;;;;;;;13.57;6.07;;;12.30;99.90;;;;;;5076562;28;20022;-74
2021/11/15 01:29:26;;;;;;;14.02;5.10;;;12.30;99.90;;;;;;5076556;28;20020;-71
2021/11/15 01:31:56;;;;;;;11.90;5.90;;;12.30;99.90;;;;;;5076531;28;20021;-74
2021/11/15 01:34:23;;;;;;;;;;;12.30;99.90;;;;;;5058955;28;20033;-73
2021/11/15 01:36:48;;;;;;;8.50;4.63;;;12.10;99.90;;;;;;5076660;28;20346;-72
2021/11/15 01:39:14;;;;;;;8.95;5.05;;;11.90;99.90;;;;;;5076346;28;20025;-72
2021/11/15 01:41:40;;;;;;;7.07;4.25;;;12.00;99.90;;;;;;5076252;28;20436;-73
2021/11/15 01:44:05;;;;;;;7.90;4.20;;;11.90;99.90;;;;;;5076182;28;20029;-70
2021/11/15 01:46:31;;;;;;;8.60;4.63;;;11.90;99.90;;;;;;5076050;28;20425;-73
2021/11/15 01:48:57;;;;;;;7.55;4.90;;;11.90;99.90;;;;;;5076152;28;20027;-74
2021/11/15 01:51:22;;;;;;;7.53;4.30;;;11.90;99.90;;;;;;5076380;28;20082;-73
2021/11/15 01:53:48;;;;;;;7.28;4.38;;;11.80;99.90;;;;;;5076080;28;20035;-72
2021/11/15 01:56:14;;;;;;;6.65;4.20;;;11.80;99.90;;;;;;5076298;28;20471;-73
2021/11/15 01:58:40;;;;;;;8.07;4.40;;;11.80;99.90;;;;;;5076019;28;20067;-73
2021/11/15 02:01:07;;;;;;;6.68;4.50;;;11.90;99.90;;;;;;5076120;28;20035;-71
2021/11/15 02:03:33;;;;;;;10.95;5.30;;;11.80;99.90;;;;;;5075897;28;20021;-74
2021/11/15 02:06:00;;;;;;;7.63;4.53;;;11.80;99.90;;;;;;5075843;28;20073;-72
2021/11/15 02:08:26;;;;;;;6.38;4.15;;;11.70;99.90;;;;;;5075825;28;20046;-70
2021/11/15 02:10:52;;;;;;;7.57;5.25;;;11.70;99.90;;;;;;5075734;28;20036;-73
2021/11/15 02:13:19;;;;;;;7.88;4.35;;;11.70;99.90;;;;;;5076024;28;20020;-72
2021/11/15 02:15:46;;;;;;;8.80;4.55;;;11.80;99.90;;;;;;5075992;28;20024;-74
2021/11/15 02:18:12;;;;;;;9.52;4.47;;;11.80;99.90;;;;;;5075652;28;20028;-73
2021/11/15 02:20:51;;;;;;;8.70;4.45;;;11.90;99.90;;;;;;5075565;28;20047;-74
2021/11/15 02:23:18;;;;;;;9.57;5.00;;;11.90;99.90;;;;;;5075576;28;20055;-70
2021/11/15 02:25:46;;;;;;;8.82;4.63;;;11.80;99.90;;;;;;5074121;28;20040;-71
2021/11/15 02:28:11;;;;;;;7.97;4.30;;;11.80;99.90;;;;;;5075530;28;20062;-73
2021/11/15 02:30:37;;;;;;;8.77;4.20;;;11.80;99.90;;;;;;5075483;28;20032;-74
2021/11/15 02:33:03;;;;;;;10.50;4.80;;;11.80;99.90;;;;;;5075641;28;20021;-72
2021/11/15 02:35:29;;;;;;;7.38;4.35;;;11.80;99.90;;;;;;5075328;28;20028;-70
2021/11/15 02:37:54;;;;;;;11.75;4.65;;;11.90;99.90;;;;;;5075232;28;20024;-72
2021/11/15 02:40:25;;;;;;;11.00;6.70;;;11.90;99.90;;;;;;5075139;28;20025;-71
2021/11/15 02:42:51;;;;;;;8.23;5.15;;;11.90;99.90;;;;;;5075771;28;20021;-73
2021/11/15 02:45:19;;;;;;;7.88;4.50;;;11.90;99.90;;;;;;5075032;28;20028;-72
2021/11/15 02:47:45;;;;;;;10.90;5.28;;;11.90;99.90;;;;;;5075463;28;20454;-72
2021/11/15 02:50:13;;;;;;;10.40;5.60;;;11.90;99.90;;;;;;5075090;28;20023;-73
2021/11/15 02:52:44;;;;;;;9.68;5.07;;;11.90;99.90;;;;;;5075024;28;20016;-73
2021/11/15 02:55:11;;;;;;;11.57;5.30;;;11.90;99.90;;;;;;5075460;28;20024;-72
2021/11/15 02:57:37;;;;;;;12.65;5.93;;;11.90;99.90;;;;;;5074911;28;20021;-70
2021/11/15 03:00:05;;;;;;;11.30;5.40;;;11.90;99.90;;;;;;5075345;28;20031;-74
2021/11/15 03:02:31;;;;;;;11.23;5.88;;;12.00;99.90;;;;;;5074816;28;20035;-70
2021/11/15 03:04:56;;;;;;;9.80;5.78;;;12.00;99.90;;;;;;5074783;28;20046;-71
2021/11/15 03:07:22;;;;;;;10.93;5.97;;;12.00;99.90;;;;;;5074653;28;20439;-71
2021/11/15 03:09:48;;;;;;;11.25;6.32;;;12.00;99.90;;;;;;5074640;28;20026;-72
2021/11/15 03:12:13;;;;;;;8.75;5.43;;;12.10;99.90;;;;;;5074901;28;20116;-74
2021/11/15 03:14:39;;;;;;;9.88;5.00;;;12.00;99.90;;;;;;5074538;28;20367;-70
2021/11/15 03:17:05;;;;;;;12.30;6.10;;;12.10;99.90;;;;;;5074524;28;20025;-71
2021/11/15 03:19:31;;;;;;;11.77;6.15;;;12.10;99.90;;;;;;5074433;28;20040;-72
2021/11/15 03:21:56;;;;;;;11.45;5.95;;;12.00;99.90;;;;;;5074363;28;20077;-71
2021/11/15 03:24:22;;;;;;;10.80;6.15;;;12.00;99.90;;;;;;5074889;28;20099;-73
2021/11/15 03:26:48;;;;;;;11.20;5.65;;;12.00;99.90;;;;;;5074266;28;20028;-73
2021/11/15 03:29:14;;;;;;;8.45;5.28;;;11.90;99.90;;;;;;5074553;28;20027;-73
2021/11/15 03:31:39;;;;;;;8.80;5.03;;;11.90;99.90;;;;;;5074243;28;20031;-73
2021/11/15 03:34:09;;;;;;;16.88;7.68;;;11.90;99.90;;;;;;5074201;28;20016;-72
2021/11/15 03:36:36;;;;;;;14.27;7.78;;;11.80;99.90;;;;;;5073722;28;20032;-72
2021/11/15 03:39:04;;;;;;;20.02;9.02;;;11.80;99.90;;;;;;5056134;28;20043;-72
2021/11/15 03:41:33;;;;;;;21.63;9.15;;;11.70;99.90;;;;;;5073901;28;20055;-75
2021/11/15 03:43:59;;;;;;;10.90;6.82;;;11.70;99.90;;;;;;5073897;28;20029;-72
2021/11/15 03:46:25;;;;;;;21.00;8.75;;;11.60;99.90;;;;;;5073872;28;20098;-72
2021/11/15 03:48:51;;;;;;;32.80;8.93;;;11.60;99.90;;;;;;5073836;28;20509;-71
2021/11/15 03:51:17;;;;;;;11.55;6.43;;;11.50;99.90;;;;;;5074095;28;20026;-72
2021/11/15 03:53:43;;;;;;;23.05;7.15;;;11.40;99.90;;;;;;5074045;28;20046;-74
2021/11/15 03:56:13;;;;;;;11.90;6.00;;;11.40;99.90;;;;;;5074011;28;20028;-72
2021/11/15 03:58:41;;;;;;;9.40;5.60;;;11.30;99.90;;;;;;5073982;28;20028;-73
2021/11/15 04:01:07;;;;;;;13.77;6.40;;;11.50;99.90;;;;;;5055700;28;20028;-71
2021/11/15 04:03:34;;;;;;;10.13;6.15;;;11.60;99.90;;;;;;5073912;28;20033;-73
2021/11/15 04:06:25;;;;;;;10.30;6.50;;;11.60;99.90;;;;;;5073579;28;20027;-71
2021/11/15 04:08:52;;;;;;;11.15;6.63;;;11.80;99.90;;;;;;5073864;28;20032;-75
2021/11/15 04:11:20;;;;;;;14.00;7.05;;;11.80;99.90;;;;;;5074035;28;20020;-71
2021/11/15 04:13:47;;;;;;;12.15;7.90;;;11.80;99.90;;;;;;5073472;28;20035;-73
2021/11/15 04:16:15;;;;;;;12.15;7.28;;;11.80;99.90;;;;;;5073977;28;20020;-71
2021/11/15 04:18:45;;;;;;;10.77;6.25;;;11.70;99.90;;;;;;5073409;28;20112;-72
2021/11/15 04:21:12;;;;;;;10.15;5.88;;;11.70;99.90;;;;;;5073894;28;20024;-71
2021/11/15 04:23:38;;;;;;;10.30;5.38;;;11.70;99.90;;;;;;5073335;28;20093;-72
2021/11/15 04:26:04;;;;;;;10.75;5.95;;;11.80;99.90;;;;;;5073323;28;20502;-73
2021/11/15 04:28:30;;;;;;;13.10;6.43;;;11.90;99.90;;;;;;5073255;28;20405;-73
2021/11/15 04:30:56;;;;;;;12.20;6.32;;;11.90;99.90;;;;;;5073240;28;20565;-74
2021/11/15 04:33:23;;;;;;;11.43;7.05;;;11.80;99.90;;;;;;5073234;28;20037;-72
2021/11/15 04:35:50;;;;;;;11.77;6.82;;;11.80;99.90;;;;;;5073168;28;20393;-72
2021/11/15 04:38:16;;;;;;;9.90;6.25;;;11.70;99.90;;;;;;5073451;28;20082;-73
2021/11/15 04:40:42;;;;;;;12.38;7.57;;;11.70;99.90;;;;;;5073046;28;20021;-73
2021/11/15 04:43:08;;;;;;;12.05;7.25;;;11.80;99.90;;;;;;5073335;28;20032;-72
2021/11/15 04:45:34;;;;;;;11.68;7.35;;;11.70;99.90;;;;;;5072964;28;20045;-73
2021/11/15 04:48:00;;;;;;;12.43;8.05;;;11.60;99.90;;;;;;5072290;28;20032;-73
2021/11/15 04:50:26;;;;;;;11.80;7.78;;;11.50;99.90;;;;;;5073661;28;20031;-72
2021/11/15 04:52:51;;;;;;;12.23;7.65;;;11.40;99.90;;;;;;5073336;28;20078;-74
2021/11/15 04:55:18;;;;;;;12.68;6.93;;;11.30;99.90;;;;;;5073327;28;20107;-74
2021/11/15 04:57:45;;;;;;;12.25;7.07;;;11.20;99.90;;;;;;5073193;28;20036;-72
2021/11/15 05:00:17;;;;;;;12.50;7.53;;;11.40;99.90;;;;;;5073203;28;20543;-70
2021/11/15 05:02:43;;;;;;;11.52;7.20;;;11.50;99.90;;;;;;5054791;28;20466;-72
2021/11/15 05:05:09;;;;;;;10.10;6.63;;;11.60;99.90;;;;;;5072909;28;20092;-73
2021/11/15 05:07:35;;;;;;;11.02;6.85;;;11.60;99.90;;;;;;5072939;28;20036;-72
2021/11/15 05:10:01;;;;;;;11.00;6.75;;;11.50;99.90;;;;;;5072862;28;20100;-72
2021/11/15 05:12:26;;;;;;;11.77;6.95;;;11.60;99.90;;;;;;5072911;28;20454;-73
2021/11/15 05:14:52;;;;;;;10.35;6.38;;;11.60;99.90;;;;;;5073150;28;20042;-71
2021/11/15 05:17:18;;;;;;;12.38;7.22;;;11.50;99.90;;;;;;5072850;28;20111;-72
2021/11/15 05:19:45;;;;;;;15.55;8.40;;;11.60;99.90;;;;;;5073091;28;20029;-72
2021/11/15 05:22:11;;;;;;;11.23;7.40;;;11.40;99.90;;;;;;5072996;28;20073;-71
2021/11/15 05:24:36;;;;;;;14.13;8.57;;;11.40;99.90;;;;;;5072746;28;20020;-73
2021/11/15 05:27:02;;;;;;;13.23;8.25;;;11.40;99.90;;;;;;5073278;28;20108;-70
2021/11/15 05:29:29;;;;;;;13.93;8.63;;;11.30;99.90;;;;;;5072651;28;20025;-72
2021/11/15 05:31:55;;;;;;;15.98;8.45;;;11.30;99.90;;;;;;5072635;28;20506;-71
2021/11/15 05:34:20;;;;;;;12.32;6.82;;;11.30;99.90;;;;;;5072646;28;20024;-73
2021/11/15 05:36:46;;;;;;;10.23;6.22;;;11.10;99.90;;;;;;5072640;28;20474;-72
2021/11/15 05:39:12;;;;;;;11.60;7.25;;;11.10;99.90;;;;;;5072560;28;20024;-72
2021/11/15 05:41:37;;;;;;;11.27;7.00;;;11.10;99.90;;;;;;5072475;28;20047;-70
2021/11/15 05:44:03;;;;;;;12.80;7.35;;;10.90;99.90;;;;;;5072782;28;20053;-71
2021/11/15 05:46:32;;;;;;;12.32;6.55;;;10.80;99.90;;;;;;5072311;28;20041;-72
2021/11/15 05:48:58;;;;;;;11.15;7.22;;;10.80;99.90;;;;;;5054579;28;20103;-72
2021/11/15 05:51:24;;;;;;;9.25;5.75;;;10.80;99.90;;;;;;5072477;28;20071;-71
2021/11/15 05:53:49;;;;;;;10.38;6.80;;;10.90;99.90;;;;;;5072728;28;20494;-72
2021/11/15 05:56:15;;;;;;;11.63;6.90;;;10.90;99.90;;;;;;5072466;28;20107;-71
2021/11/15 05:58:41;;;;;;;9.20;5.95;;;10.90;99.90;;;;;;5072978;28;20021;-73
2021/11/15 06:01:07;;;;;;;9.23;5.85;;;10.70;99.90;;;;;;5075663;28;20048;-70
2021/11/15 06:03:33;;;;;;;8.68;4.53;;;10.60;99.90;;;;;;5075907;28;20048;-70
2021/11/15 06:05:58;;;;;;;10.00;5.50;;;10.80;99.90;;;;;;5075890;28;20024;-74
2021/11/15 06:08:24;;;;;;;10.88;6.40;;;10.80;99.90;;;;;;5076176;28;20100;-72
2021/11/15 06:10:50;;;;;;;10.07;5.47;;;10.60;99.90;;;;;;5076076;28;20032;-74
2021/11/15 06:13:16;;;;;;;8.13;5.25;;;10.60;99.90;;;;;;5075749;28;20028;-70
2021/11/15 06:15:42;;;;;;;8.00;5.03;;;10.50;99.90;;;;;;5076012;28;20520;-70
2021/11/15 06:18:08;;;;;;;8.57;5.22;;;10.40;99.90;;;;;;5075640;28;20029;-70
2021/11/15 06:20:34;;;;;;;14.98;6.15;;;10.40;99.90;;;;;;5075539;28;20048;-71
2021/11/15 06:22:59;;;;;;;12.07;5.38;;;10.40;99.90;;;;;;5075584;28;20090;-71
2021/11/15 06:25:25;;;;;;;10.15;5.40;;;10.30;99.90;;;;;;5075852;28;20033;-72
2021/11/15 06:27:52;;;;;;;7.68;4.72;;;10.40;99.90;;;;;;5075493;28;20016;-73
2021/11/15 06:30:19;;;;;;;8.88;4.72;;;10.40;99.90;;;;;;5075736;28;20046;-72
2021/11/15 06:32:45;;;;;;;8.25;5.50;;;10.50;99.90;;;;;;5075684;28;20073;-72
2021/11/15 06:35:12;;;;;;;8.73;4.90;;;10.40;99.90;;;;;;5075657;28;20067;-73
2021/11/15 06:37:39;;;;;;;10.88;6.20;;;10.40;99.90;;;;;;5057422;28;20501;-71
2021/11/15 06:40:07;;;;;;;12.18;6.90;;;10.40;99.90;;;;;;5075313;28;20021;-73
2021/11/15 06:42:33;;;;;;;15.02;8.32;;;10.30;99.90;;;;;;5075398;28;20043;-74
2021/11/15 06:44:59;;;;;;;13.10;7.95;;;10.10;99.90;;;;;;5075109;28;20020;-73
2021/11/15 06:47:24;;;;;;;14.93;8.32;;;10.10;99.90;;;;;;5074707;28;20567;-72
2021/11/15 06:49:51;;;;;;;15.40;6.72;;;10.00;99.90;;;;;;5075081;28;20407;-72
2021/11/15 06:52:19;;;;;;;9.98;5.63;;;9.90;99.90;;;;;;5075633;28;20371;-72
2021/11/15 06:54:46;;;;;;;9.73;5.28;;;10.00;99.90;;;;;;5075023;28;20025;-72
2021/11/15 06:57:11;;;;;;;8.60;5.25;;;10.00;99.90;;;;;;5075252;28;20055;-72
2021/11/15 06:59:37;;;;;;;11.10;5.72;;;10.10;99.90;;;;;;5075169;28;20032;-72
2021/11/15 07:02:03;;;;;;;8.05;5.15;;;10.00;99.90;;;;;;5074727;28;20025;-71
2021/11/15 07:04:29;;;;;;;10.00;5.50;;;9.90;99.90;;;;;;5074837;28;20025;-72
2021/11/15 07:06:55;;;;;;;10.95;5.70;;;10.00;99.90;;;;;;5074770;28;20078;-72
2021/11/15 07:09:20;;;;;;;9.32;6.30;;;10.00;99.90;;;;;;5074963;28;20025;-73
2021/11/15 07:11:46;;;;;;;7.97;5.25;;;10.00;99.90;;;;;;5074117;28;20028;-71
2021/11/15 07:14:12;;;;;;;8.88;5.68;;;10.00;99.90;;;;;;5074633;28;20028;-74
2021/11/15 07:16:37;;;;;;;6.78;4.28;;;10.10;99.90;;;;;;5074574;28;20457;-73
2021/11/15 07:19:04;;;;;;;8.35;5.03;;;10.10;99.90;;;;;;5075038;28;20028;-73
2021/11/15 07:21:30;;;;;;;9.65;5.68;;;10.00;99.90;;;;;;5074631;28;20028;-72
2021/11/15 07:23:56;;;;;;;15.82;9.63;;;10.10;99.90;;;;;;5074655;28;20024;-74
2021/11/15 07:26:22;;;;;;;10.88;6.43;;;10.00;99.90;;;;;;5074912;28;20024;-71
2021/11/15 07:28:48;;;;;;;11.57;7.47;;;10.00;99.90;;;;;;5074281;28;20017;-71
2021/11/15 07:31:15;;;;;;;12.52;7.20;;;10.00;99.90;;;;;;5074543;28;20020;-72
2021/11/15 07:33:41;;;;;;;13.93;7.80;;;10.00;99.90;;;;;;5074517;28;20100;-70
2021/11/15 07:36:07;;;;;;;41.63;10.02;;;10.00;99.90;;;;;;5074425;28;20522;-71
2021/11/15 07:38:33;;;;;;;20.63;8.43;;;10.00;99.90;;;;;;5074096;28;20166;-72
2021/11/15 07:40:59;;;;;;;11.23;7.63;;;10.00;99.90;;;;;;5074540;28;20063;-72
2021/11/15 07:43:24;;;;;;;19.55;11.13;;;9.80;99.90;;;;;;5073930;28;20020;-74
2021/11/15 07:45:51;;;;;;;22.25;9.68;;;9.90;99.90;;;;;;5073556;28;20119;-71
2021/11/15 07:48:16;;;;;;;14.98;8.90;;;9.90;99.90;;;;;;5073938;28;20031;-73
2021/11/15 07:50:44;;;;;;;12.32;7.18;;;10.00;99.90;;;;;;5055964;28;20112;-73
2021/11/15 07:53:09;;;;;;;15.45;8.40;;;10.00;99.90;;;;;;5073752;28;20577;-75
2021/11/15 07:55:35;;;;;;;12.85;8.32;;;10.00;99.90;;;;;;5074053;28;20104;-73
2021/11/15 07:58:04;;;;;;;16.50;9.82;;;10.00;99.90;;;;;;5074018;28;20482;-72
2021/11/15 08:00:30;;;;;;;35.05;18.92;;;10.10;99.90;;;;;;5072609;28;20020;-74
2021/11/15 08:02:56;;;;;;;28.30;15.77;;;10.20;99.90;;;;;;5073098;28;20031;-80
2021/11/15 08:05:24;;;;;;;28.20;14.20;;;10.30;99.90;;;;;;5073548;28;20024;-84
2021/11/15 08:07:50;;;;;;;17.25;11.52;;;10.30;99.90;;;;;;5073306;28;20394;-83
2021/11/15 08:10:18;;;;;;;22.98;14.73;;;10.10;99.90;;;;;;5055564;28;20020;-83
2021/11/15 08:12:47;;;;;;;45.03;32.33;;;10.20;99.90;;;;;;5073128;28;20077;-87
2021/11/15 08:15:25;;;;;;;24.38;17.15;;;10.10;99.90;;;;;;5073307;28;20059;-82
2021/11/15 08:17:53;;;;;;;39.42;31.15;;;10.00;99.90;;;;;;5073784;28;20056;-81
2021/11/15 08:20:23;;;;;;;23.40;13.95;;;10.20;99.90;;;;;;5072965;28;20025;-80
2021/11/15 08:22:53;;;;;;;30.50;21.58;;;10.40;99.90;;;;;;5072908;28;20551;-78
2021/11/15 08:25:56;;;;;;;32.30;20.65;;;10.40;99.90;;;;;;5073690;28;20039;-81
2021/11/15 08:28:27;;;;;;;26.88;15.75;;;10.50;99.90;;;;;;5072902;28;20379;-79
2021/11/15 08:30:54;;;;;;;25.35;15.82;;;10.60;99.90;;;;;;5055217;28;20036;-74
2021/11/15 08:33:20;;;;;;;24.17;14.98;;;10.70;99.90;;;;;;5072956;28;20020;-73
2021/11/15 08:35:48;;;;;;;22.15;14.55;;;10.70;99.90;;;;;;5072627;28;20035;-73
2021/11/15 08:38:18;;;;;;;25.13;17.08;;;10.60;99.90;;;;;;5053187;28;20031;-73
2021/11/15 08:40:49;;;;;;;23.67;15.37;;;10.60;99.90;;;;;;5053132;28;20025;-78
2021/11/15 08:43:22;;;;;;;23.58;14.75;;;10.70;99.90;;;;;;5059502;28;20363;-82
2021/11/15 08:45:49;;;;;;;24.98;16.50;;;10.80;99.90;;;;;;5072647;28;20045;-73
2021/11/15 08:48:16;;;;;;;28.50;17.67;;;10.90;99.90;;;;;;5073098;28;20048;-81
2021/11/15 08:50:43;;;;;;;29.42;17.48;;;10.80;99.90;;;;;;5073218;28;20032;-76
2021/11/15 08:53:08;;;;;;;26.45;14.65;;;10.90;99.90;;;;;;5073184;28;20024;-78
2021/11/15 08:55:34;;;;;;;24.48;16.13;;;11.10;99.90;;;;;;5073040;28;20497;-85
2021/11/15 08:58:02;;;;;;;32.50;18.08;;;11.40;99.90;;;;;;5072839;28;20031;-81
2021/11/15 09:00:29;;;;;;;30.48;19.38;;;11.40;99.90;;;;;;5072446;28;20062;-73
2021/11/15 09:02:55;;;;;;;33.92;19.98;;;11.60;99.90;;;;;;5072925;28;20020;-72
2021/11/15 09:05:21;;;;;;;32.20;18.73;;;11.80;99.90;;;;;;5072838;28;20017;-74
2021/11/15 09:07:47;;;;;;;34.75;22.20;;;12.00;99.90;;;;;;5072417;28;20096;-74
2021/11/15 09:10:15;;;;;;;32.80;19.58;;;12.20;99.90;;;;;;5072075;28;20059;-77
2021/11/15 09:12:42;;;;;;;30.23;18.88;;;12.40;99.90;;;;;;5072479;28;20028;-78
2021/11/15 09:15:10;;;;;;;30.45;18.35;;;12.70;99.90;;;;;;5073236;28;20596;-81
2021/11/15 09:17:39;;;;;;;28.58;18.08;;;13.00;99.90;;;;;;5073658;28;20047;-80
2021/11/15 09:20:06;;;;;;;30.10;18.65;;;13.20;99.90;;;;;;5072999;28;20021;-80
2021/11/15 09:22:32;;;;;;;33.20;20.88;;;13.40;99.90;;;;;;5072971;28;20068;-77
2021/11/15 09:24:58;;;;;;;29.83;18.40;;;13.50;99.90;;;;;;5072939;28;20051;-81
2021/11/15 09:27:26;;;;;;;30.48;18.88;;;13.50;99.90;;;;;;5072798;28;20541;-82
2021/11/15 09:29:54;;;;;;;32.05;20.80;;;13.60;99.90;;;;;;5072407;28;20111;-81
2021/11/15 09:32:20;;;;;;;30.55;18.75;;;14.00;99.90;;;;;;5072934;28;20032;-79
2021/11/15 09:34:47;;;;;;;34.10;20.35;;;13.90;99.90;;;;;;5074540;28;20093;-74
2021/11/15 09:37:15;;;;;;;31.48;20.40;;;13.90;99.90;;;;;;5076979;28;20127;-80
2021/11/15 09:39:46;;;;;;;34.00;20.23;;;13.80;99.90;;;;;;5076648;28;20027;-80
2021/11/15 09:42:13;;;;;;;33.65;21.38;;;13.80;99.90;;;;;;5076827;28;20035;-79
2021/11/15 09:44:39;;;;;;;29.77;18.58;;;13.60;99.90;;;;;;5075902;28;20095;-79
2021/11/15 09:47:06;;;;;;;31.27;20.92;;;13.60;99.90;;;;;;5057316;28;20579;-73
2021/11/15 09:49:32;;;;;;;34.35;20.52;;;13.50;99.90;;;;;;5076474;28;20135;-75
2021/11/15 09:51:59;;;;;;;32.72;18.63;;;13.30;99.90;;;;;;5076499;28;20074;-77
2021/11/15 09:54:25;;;;;;;35.03;19.98;;;13.00;99.90;;;;;;5076107;28;20028;-74
2021/11/15 09:56:52;;;;;;;33.85;21.77;;;13.00;99.90;;;;;;5076616;28;20025;-76
2021/11/15 09:59:19;;;;;;;32.03;18.92;;;12.90;99.90;;;;;;5075828;28;20029;-83
2021/11/15 10:01:48;;;;;;;31.30;18.90;;;13.00;99.90;;;;;;5063056;28;20060;-80
2021/11/15 10:04:17;;;;;;;32.75;18.92;;;12.90;99.90;;;;;;5074138;28;20104;-77
2021/11/15 10:06:44;;;;;;;29.60;18.67;;;12.80;99.90;;;;;;5072487;28;20429;-75
2021/11/15 10:09:10;;;;;;;34.13;19.15;;;12.90;99.90;;;;;;5075537;28;20096;-72
2021/11/15 10:11:51;;;;;;;29.52;18.17;;;12.80;99.90;;;;;;5075506;28;20039;-75
2021/11/15 10:14:17;;;;;;;29.45;17.05;;;12.80;99.90;;;;;;5076130;28;20103;-74
2021/11/15 10:16:56;;;;;;;36.97;20.48;;;12.60;99.90;;;;;;5075691;28;20052;-78
2021/11/15 10:19:23;;;;;;;32.67;19.00;;;12.60;99.90;;;;;;5075828;28;20082;-79
2021/11/15 10:21:54;;;;;;;32.75;18.80;;;12.50;99.90;;;;;;5057696;28;20028;-79
2021/11/15 10:24:22;;;;;;;30.73;17.13;;;12.60;99.90;;;;;;5075522;28;20027;-75
2021/11/15 10:26:51;;;;;;;29.15;17.70;;;12.60;99.90;;;;;;5075244;28;20033;-78
2021/11/15 10:29:21;;;;;;;31.40;17.13;;;12.50;99.90;;;;;;5075516;28;20017;-76
2021/11/15 10:31:54;;;;;;;27.38;16.85;;;12.60;99.90;;;;;;5075334;28;20028;-82
2021/11/15 10:34:37;;;;;;;30.40;17.05;;;12.50;99.90;;;;;;5074559;28;20074;-77
2021/11/15 10:37:18;;;;;;;30.17;16.90;;;12.40;99.90;;;;;;5056246;28;20434;-80
2021/11/15 10:40:00;;;;;;;27.35;16.55;;;12.40;99.90;;;;;;5057035;28;20042;-78
2021/11/15 10:42:31;;;;;;;26.55;16.08;;;12.40;99.90;;;;;;5075507;28;20028;-80
2021/11/15 10:45:04;;;;;;;29.30;16.52;;;12.40;99.90;;;;;;5074900;28;20066;-81
2021/11/15 10:47:32;;;;;;;28.30;15.55;;;12.30;99.90;;;;;;5074783;28;20076;-83
2021/11/15 10:50:25;;;;;;;28.65;16.27;;;12.20;99.90;;;;;;5074890;28;20021;-82
2021/11/15 10:53:11;;;;;;;28.10;16.15;;;12.20;99.90;;;;;;5057482;28;20050;-81
2021/11/15 10:55:48;;;;;;;28.88;16.17;;;12.20;99.90;;;;;;5074642;28;20027;-79
2021/11/15 10:58:19;;;;;;;24.30;14.85;;;12.30;99.90;;;;;;5075165;28;20031;-82
2021/11/15 11:01:02;;;;;;;29.02;16.63;;;12.30;99.90;;;;;;5074050;28;20029;-80
2021/11/15 11:03:30;;;;;;;29.77;17.08;;;12.20;99.90;;;;;;5075434;28;20020;-79
2021/11/15 11:06:00;;;;;;;31.65;16.92;;;12.20;99.90;;;;;;5074639;28;20021;-80
2021/11/15 11:08:48;;;;;;;29.17;16.35;;;12.20;99.90;;;;;;5074841;28;20028;-81
2021/11/15 11:11:32;;;;;;;28.35;16.63;;;12.20;99.90;;;;;;5075013;28;20056;-83
2021/11/15 11:14:01;;;;;;;29.52;17.13;;;12.20;99.90;;;;;;5056949;28;20056;-82
2021/11/15 11:16:40;;;;;;;29.05;16.73;;;12.20;99.90;;;;;;5056639;28;20539;-77
2021/11/15 11:19:18;;;;;;;30.80;17.92;;;12.10;99.90;;;;;;5074883;28;20101;-81
2021/11/15 11:27:13;;;;;;;29.58;17.73;;;12.00;99.90;;;;;;5074665;28;20032;-79
2021/11/15 11:29:45;;;;;;;32.10;17.75;;;11.90;99.90;;;;;;5074873;28;20048;-79
2021/11/15 11:32:13;;;;;;;30.60;17.77;;;12.00;99.90;;;;;;5074992;28;20028;-79
2021/11/15 11:34:41;;;;;;;33.78;18.67;;;12.00;99.90;;;;;;5073912;28;20016;-85
2021/11/15 11:37:10;;;;;;;31.30;18.27;;;12.10;99.90;;;;;;5069596;28;20021;-80
2021/11/15 11:39:37;;;;;;;34.75;19.00;;;12.10;99.90;;;;;;5073193;28;20089;-72
2021/11/15 11:42:05;;;;;;;31.60;17.10;;;12.10;99.90;;;;;;5073499;28;20028;-71
2021/11/15 11:44:32;;;;;;;32.47;18.25;;;12.20;99.90;;;;;;5073646;28;20017;-74
2021/11/15 11:47:01;;;;;;;32.15;17.45;;;12.30;99.90;;;;;;5073755;28;20049;-72
2021/11/15 11:49:28;;;;;;;30.17;17.63;;;12.30;99.90;;;;;;5074167;28;20019;-73
2021/11/15 11:51:58;;;;;;;30.63;17.38;;;12.30;99.90;;;;;;5073233;28;20127;-72
2021/11/15 11:54:32;;;;;;;32.03;16.77;;;12.30;99.90;;;;;;5073318;28;20020;-72
2021/11/15 11:57:00;;;;;;;34.35;18.77;;;12.30;99.90;;;;;;5074028;28;20055;-74
2021/11/15 11:59:26;;;;;;;34.42;19.65;;;12.40;99.90;;;;;;5055787;28;20458;-73
2021/11/15 12:02:02;;;;;;;32.92;18.40;;;12.60;99.90;;;;;;5073610;28;20107;-73
2021/11/15 12:04:30;;;;;;;36.35;19.90;;;12.80;99.90;;;;;;5074246;28;20482;-73
2021/11/15 12:06:56;;;;;;;32.83;18.85;;;12.90;99.90;;;;;;5073575;28;20371;-73
2021/11/15 12:09:24;;;;;;;35.13;19.08;;;13.00;99.90;;;;;;5073865;28;20025;-71
2021/11/15 12:11:55;;;;;;;34.53;20.42;;;12.90;99.90;;;;;;5073557;28;20056;-75
2021/11/15 12:14:36;;;;;;;34.72;19.65;;;12.70;99.90;;;;;;5074071;28;20048;-72
2021/11/15 12:17:05;;;;;;;33.75;19.08;;;12.60;99.90;;;;;;5073771;28;20034;-75
2021/11/15 12:19:49;;;;;;;32.38;18.83;;;12.70;99.90;;;;;;5073429;28;20024;-71
2021/11/15 12:22:20;;;;;;;32.30;19.27;;;12.50;99.90;;;;;;5073624;28;20031;-75
2021/11/15 12:25:04;;;;;;;32.30;19.15;;;12.50;99.90;;;;;;5073388;28;20028;-73
2021/11/15 12:27:36;;;;;;;35.08;18.52;;;12.50;99.90;;;;;;5055342;28;20021;-73
2021/11/15 12:30:15;;;;;;;31.30;18.55;;;12.60;99.90;;;;;;5073551;28;20031;-75
2021/11/15 12:32:42;;;;;;;31.17;17.40;;;12.80;99.90;;;;;;5073863;28;20107;-73
2021/11/15 12:35:08;;;;;;;29.70;17.13;;;12.80;99.90;;;;;;5073250;28;20028;-73
2021/11/15 12:37:40;;;;;;;32.85;17.90;;;12.80;99.90;;;;;;5073195;28;20031;-72
2021/11/15 12:40:09;;;;;;;28.98;16.92;;;12.70;99.90;;;;;;5073490;28;20029;-74
2021/11/15 12:42:36;;;;;;;32.63;17.47;;;12.60;99.90;;;;;;5055196;28;20407;-73
2021/11/15 12:45:22;;;;;;;28.55;16.50;;;12.50;99.90;;;;;;5073052;28;20258;-73